sensor_id;sensor_type;location;lat;lon;timestamp;temperature;humidity
55004;DHT22;40900;52.710;6.438;2023-09-30T00:01:42;12.40;99.90
55004;DHT22;40900;52.710;6.438;2023-09-30T00:04:09;12.40;99.90
55004;DHT22;40900;52.710;6.438;2023-09-30T00:06:35;12.30;99.90
55004;DHT22;40900;52.710;6.438;2023-09-30T00:09:01;12.30;99.90
55004;DHT22;40900;52.710;6.438;2023-09-30T00:11:27;12.30;99.90
55004;DHT22;40900;52.710;6.438;2023-09-30T00:13:53;12.20;99.90
55004;DHT22;40900;52.710;6.438;2023-09-30T00:16:19;12.20;99.90
55004;DHT22;40900;52.710;6.438;2023-09-30T00:18:44;12.20;99.90
55004;DHT22;40900;52.710;6.438;2023-09-30T00:21:11;12.20;99.90
55004;DHT22;40900;52.710;6.438;2023-09-30T00:23:37;12.20;99.90
55004;DHT22;40900;52.710;6.438;2023-09-30T00:26:03;12.20;99.90
55004;DHT22;40900;52.710;6.438;2023-09-30T00:28:29;12.20;99.90
55004;DHT22;40900;52.710;6.438;2023-09-30T00:30:54;12.20;99.90
55004;DHT22;40900;52.710;6.438;2023-09-30T00:33:20;12.20;99.90
55004;DHT22;40900;52.710;6.438;2023-09-30T00:35:46;12.20;99.90
55004;DHT22;40900;52.710;6.438;2023-09-30T00:38:12;12.20;99.90
55004;DHT22;40900;52.710;6.438;2023-09-30T00:40:38;12.20;99.90
55004;DHT22;40900;52.710;6.438;2023-09-30T00:43:04;12.20;99.90
55004;DHT22;40900;52.710;6.438;2023-09-30T00:45:30;12.10;99.90
55004;DHT22;40900;52.710;6.438;2023-09-30T00:47:56;12.10;99.90
55004;DHT22;40900;52.710;6.438;2023-09-30T00:50:22;12.10;99.90
55004;DHT22;40900;52.710;6.438;2023-09-30T00:52:49;12.10;99.90
55004;DHT22;40900;52.710;6.438;2023-09-30T00:55:16;12.10;99.90
55004;DHT22;40900;52.710;6.438;2023-09-30T00:57:42;12.10;99.90
55004;DHT22;40900;52.710;6.438;2023-09-30T01:00:11;12.10;99.90
55004;DHT22;40900;52.710;6.438;2023-09-30T01:02:40;12.20;99.90
55004;DHT22;40900;52.710;6.438;2023-09-30T01:05:07;12.10;99.90
55004;DHT22;40900;52.710;6.438;2023-09-30T01:07:34;12.10;99.90
55004;DHT22;40900;52.710;6.438;2023-09-30T01:10:01;12.00;99.90
55004;DHT22;40900;52.710;6.438;2023-09-30T01:12:26;12.00;99.90
55004;DHT22;40900;52.710;6.438;2023-09-30T01:14:58;12.00;99.90
55004;DHT22;40900;52.710;6.438;2023-09-30T01:17:24;11.90;99.90
55004;DHT22;40900;52.710;6.438;2023-09-30T01:19:50;11.90;99.90
55004;DHT22;40900;52.710;6.438;2023-09-30T01:22:17;11.90;99.90
55004;DHT22;40900;52.710;6.438;2023-09-30T01:24:43;11.80;99.90
55004;DHT22;40900;52.710;6.438;2023-09-30T01:27:13;11.90;99.90
55004;DHT22;40900;52.710;6.438;2023-09-30T01:29:39;11.90;99.90
55004;DHT22;40900;52.710;6.438;2023-09-30T01:32:07;11.90;99.90
55004;DHT22;40900;52.710;6.438;2023-09-30T01:34:34;11.90;99.90
55004;DHT22;40900;52.710;6.438;2023-09-30T01:37:00;11.90;99.90
55004;DHT22;40900;52.710;6.438;2023-09-30T01:39:26;11.90;99.90
55004;DHT22;40900;52.710;6.438;2023-09-30T01:41:52;11.90;99.90
55004;DHT22;40900;52.710;6.438;2023-09-30T01:44:17;11.90;99.90
55004;DHT22;40900;52.710;6.438;2023-09-30T01:46:43;11.90;99.90
55004;DHT22;40900;52.710;6.438;2023-09-30T01:49:09;11.90;99.90
55004;DHT22;40900;52.710;6.438;2023-09-30T01:51:35;11.80;99.90
55004;DHT22;40900;52.710;6.438;2023-09-30T01:54:01;11.70;99.90
55004;DHT22;40900;52.710;6.438;2023-09-30T01:56:26;11.70;99.90
55004;DHT22;40900;52.710;6.438;2023-09-30T01:58:52;11.70;99.90
55004;DHT22;40900;52.710;6.438;2023-09-30T02:01:18;11.70;99.90
55004;DHT22;40900;52.710;6.438;2023-09-30T02:03:44;11.70;99.90
55004;DHT22;40900;52.710;6.438;2023-09-30T02:06:09;11.70;99.90
55004;DHT22;40900;52.710;6.438;2023-09-30T02:08:36;11.70;99.90
55004;DHT22;40900;52.710;6.438;2023-09-30T02:11:02;11.70;99.90
55004;DHT22;40900;52.710;6.438;2023-09-30T02:13:29;11.70;99.90
55004;DHT22;40900;52.710;6.438;2023-09-30T02:15:55;11.70;99.90
55004;DHT22;40900;52.710;6.438;2023-09-30T02:18:21;11.70;99.90
55004;DHT22;40900;52.710;6.438;2023-09-30T02:20:47;11.80;99.90
55004;DHT22;40900;52.710;6.438;2023-09-30T02:23:13;11.70;99.90
55004;DHT22;40900;52.710;6.438;2023-09-30T02:25:41;11.70;99.90
55004;DHT22;40900;52.710;6.438;2023-09-30T02:28:09;11.70;99.90
55004;DHT22;40900;52.710;6.438;2023-09-30T02:30:35;11.70;99.90
55004;DHT22;40900;52.710;6.438;2023-09-30T02:33:01;11.80;99.90
55004;DHT22;40900;52.710;6.438;2023-09-30T02:35:27;11.80;99.90
55004;DHT22;40900;52.710;6.438;2023-09-30T02:37:54;11.80;99.90
55004;DHT22;40900;52.710;6.438;2023-09-30T02:40:20;11.70;99.90
55004;DHT22;40900;52.710;6.438;2023-09-30T02:42:46;11.70;99.90
55004;DHT22;40900;52.710;6.438;2023-09-30T02:45:12;11.80;99.90
55004;DHT22;40900;52.710;6.438;2023-09-30T02:47:39;11.70;99.90
55004;DHT22;40900;52.710;6.438;2023-09-30T02:50:06;11.80;99.90
55004;DHT22;40900;52.710;6.438;2023-09-30T02:52:34;11.80;99.90
55004;DHT22;40900;52.710;6.438;2023-09-30T02:55:00;11.80;99.90
55004;DHT22;40900;52.710;6.438;2023-09-30T02:57:26;11.80;99.90
55004;DHT22;40900;52.710;6.438;2023-09-30T02:59:53;11.80;99.90
55004;DHT22;40900;52.710;6.438;2023-09-30T03:02:20;11.70;99.90
55004;DHT22;40900;52.710;6.438;2023-09-30T03:04:47;11.70;99.90
55004;DHT22;40900;52.710;6.438;2023-09-30T03:07:13;11.70;99.90
55004;DHT22;40900;52.710;6.438;2023-09-30T03:09:39;11.70;99.90
55004;DHT22;40900;52.710;6.438;2023-09-30T03:12:05;11.70;99.90
55004;DHT22;40900;52.710;6.438;2023-09-30T03:14:34;11.70;99.90
55004;DHT22;40900;52.710;6.438;2023-09-30T03:17:00;11.70;99.90
55004;DHT22;40900;52.710;6.438;2023-09-30T03:19:26;11.70;99.90
55004;DHT22;40900;52.710;6.438;2023-09-30T03:21:51;11.70;99.90
55004;DHT22;40900;52.710;6.438;2023-09-30T03:24:17;11.70;99.90
55004;DHT22;40900;52.710;6.438;2023-09-30T03:26:43;11.70;99.90
55004;DHT22;40900;52.710;6.438;2023-09-30T03:29:09;11.70;99.90
55004;DHT22;40900;52.710;6.438;2023-09-30T03:31:35;11.70;99.90
55004;DHT22;40900;52.710;6.438;2023-09-30T03:34:02;11.70;99.90
55004;DHT22;40900;52.710;6.438;2023-09-30T03:36:30;11.70;99.90
55004;DHT22;40900;52.710;6.438;2023-09-30T03:38:56;11.60;99.90
55004;DHT22;40900;52.710;6.438;2023-09-30T03:41:22;11.60;99.90
55004;DHT22;40900;52.710;6.438;2023-09-30T03:43:48;11.60;99.90
55004;DHT22;40900;52.710;6.438;2023-09-30T03:46:14;11.60;99.90
55004;DHT22;40900;52.710;6.438;2023-09-30T03:48:41;11.60;99.90
55004;DHT22;40900;52.710;6.438;2023-09-30T03:51:17;11.60;99.90
55004;DHT22;40900;52.710;6.438;2023-09-30T03:53:45;11.60;99.90
55004;DHT22;40900;52.710;6.438;2023-09-30T03:56:12;11.60;99.90
55004;DHT22;40900;52.710;6.438;2023-09-30T03:58:39;11.60;99.90
55004;DHT22;40900;52.710;6.438;2023-09-30T04:01:05;11.50;99.90
55004;DHT22;40900;52.710;6.438;2023-09-30T04:03:31;11.50;99.90
55004;DHT22;40900;52.710;6.438;2023-09-30T04:06:01;11.40;99.90
55004;DHT22;40900;52.710;6.438;2023-09-30T04:08:28;11.40;99.90
55004;DHT22;40900;52.710;6.438;2023-09-30T04:10:54;11.50;99.90
55004;DHT22;40900;52.710;6.438;2023-09-30T04:13:20;11.50;99.90
55004;DHT22;40900;52.710;6.438;2023-09-30T04:15:47;11.50;99.90
55004;DHT22;40900;52.710;6.438;2023-09-30T04:18:14;11.50;99.90
55004;DHT22;40900;52.710;6.438;2023-09-30T04:20:40;11.50;99.90
55004;DHT22;40900;52.710;6.438;2023-09-30T04:23:07;11.50;99.90
55004;DHT22;40900;52.710;6.438;2023-09-30T04:25:35;11.50;99.90
55004;DHT22;40900;52.710;6.438;2023-09-30T04:28:01;11.50;99.90
55004;DHT22;40900;52.710;6.438;2023-09-30T04:30:28;11.50;99.90
55004;DHT22;40900;52.710;6.438;2023-09-30T04:32:54;11.50;99.90
55004;DHT22;40900;52.710;6.438;2023-09-30T04:35:20;11.50;99.90
55004;DHT22;40900;52.710;6.438;2023-09-30T04:37:47;11.50;99.90
55004;DHT22;40900;52.710;6.438;2023-09-30T04:40:13;11.50;99.90
55004;DHT22;40900;52.710;6.438;2023-09-30T04:42:45;11.50;99.90
55004;DHT22;40900;52.710;6.438;2023-09-30T04:45:13;11.40;99.90
55004;DHT22;40900;52.710;6.438;2023-09-30T04:47:42;11.50;99.90
55004;DHT22;40900;52.710;6.438;2023-09-30T04:50:10;11.50;99.90
55004;DHT22;40900;52.710;6.438;2023-09-30T04:52:37;11.40;99.90
55004;DHT22;40900;52.710;6.438;2023-09-30T04:55:04;11.40;99.90
55004;DHT22;40900;52.710;6.438;2023-09-30T04:57:30;11.40;99.90
55004;DHT22;40900;52.710;6.438;2023-09-30T04:59:57;11.40;99.90
55004;DHT22;40900;52.710;6.438;2023-09-30T05:02:26;11.40;99.90
55004;DHT22;40900;52.710;6.438;2023-09-30T05:04:53;11.40;99.90
55004;DHT22;40900;52.710;6.438;2023-09-30T05:07:20;11.40;99.90
55004;DHT22;40900;52.710;6.438;2023-09-30T05:09:47;11.40;99.90
55004;DHT22;40900;52.710;6.438;2023-09-30T05:12:12;11.40;99.90
55004;DHT22;40900;52.710;6.438;2023-09-30T05:14:38;11.40;99.90
55004;DHT22;40900;52.710;6.438;2023-09-30T05:17:05;11.30;99.90
55004;DHT22;40900;52.710;6.438;2023-09-30T05:19:31;11.30;99.90
55004;DHT22;40900;52.710;6.438;2023-09-30T05:21:59;11.30;99.90
55004;DHT22;40900;52.710;6.438;2023-09-30T05:24:28;11.30;99.90
55004;DHT22;40900;52.710;6.438;2023-09-30T05:26:54;11.30;99.90
55004;DHT22;40900;52.710;6.438;2023-09-30T05:29:19;11.30;99.90
55004;DHT22;40900;52.710;6.438;2023-09-30T05:31:46;11.40;99.90
55004;DHT22;40900;52.710;6.438;2023-09-30T05:34:12;11.40;99.90
55004;DHT22;40900;52.710;6.438;2023-09-30T05:36:38;11.30;99.90
55004;DHT22;40900;52.710;6.438;2023-09-30T05:39:04;11.40;99.90
55004;DHT22;40900;52.710;6.438;2023-09-30T05:41:31;11.30;99.90
55004;DHT22;40900;52.710;6.438;2023-09-30T05:43:56;11.30;99.90
55004;DHT22;40900;52.710;6.438;2023-09-30T05:46:24;11.30;99.90
55004;DHT22;40900;52.710;6.438;2023-09-30T05:48:50;11.30;99.90
55004;DHT22;40900;52.710;6.438;2023-09-30T05:51:16;11.30;99.90
55004;DHT22;40900;52.710;6.438;2023-09-30T05:53:42;11.30;99.90
55004;DHT22;40900;52.710;6.438;2023-09-30T05:56:10;11.30;99.90
55004;DHT22;40900;52.710;6.438;2023-09-30T05:58:41;11.30;99.90
55004;DHT22;40900;52.710;6.438;2023-09-30T06:01:08;11.40;99.90
55004;DHT22;40900;52.710;6.438;2023-09-30T06:03:38;11.40;99.90
55004;DHT22;40900;52.710;6.438;2023-09-30T06:06:13;11.40;99.90
55004;DHT22;40900;52.710;6.438;2023-09-30T06:08:42;11.40;99.90
55004;DHT22;40900;52.710;6.438;2023-09-30T06:11:23;11.40;99.90
55004;DHT22;40900;52.710;6.438;2023-09-30T06:13:57;11.50;99.90
55004;DHT22;40900;52.710;6.438;2023-09-30T06:16:27;11.50;99.90
55004;DHT22;40900;52.710;6.438;2023-09-30T06:18:53;11.50;99.90
55004;DHT22;40900;52.710;6.438;2023-09-30T06:21:24;11.50;99.90
55004;DHT22;40900;52.710;6.438;2023-09-30T06:23:50;11.50;99.90
55004;DHT22;40900;52.710;6.438;2023-09-30T06:26:19;11.50;99.90
55004;DHT22;40900;52.710;6.438;2023-09-30T06:28:46;11.60;99.90
55004;DHT22;40900;52.710;6.438;2023-09-30T06:31:14;11.70;99.90
55004;DHT22;40900;52.710;6.438;2023-09-30T06:33:40;11.70;99.90
55004;DHT22;40900;52.710;6.438;2023-09-30T06:36:11;11.70;99.90
55004;DHT22;40900;52.710;6.438;2023-09-30T06:38:37;11.80;99.90
55004;DHT22;40900;52.710;6.438;2023-09-30T06:41:07;11.80;99.90
55004;DHT22;40900;52.710;6.438;2023-09-30T06:43:34;11.90;99.90
55004;DHT22;40900;52.710;6.438;2023-09-30T06:46:06;11.90;99.90
55004;DHT22;40900;52.710;6.438;2023-09-30T06:48:36;12.00;99.90
55004;DHT22;40900;52.710;6.438;2023-09-30T06:51:02;12.00;99.90
55004;DHT22;40900;52.710;6.438;2023-09-30T06:53:28;12.00;99.90
55004;DHT22;40900;52.710;6.438;2023-09-30T06:55:54;12.10;99.90
55004;DHT22;40900;52.710;6.438;2023-09-30T06:58:20;12.20;99.90
55004;DHT22;40900;52.710;6.438;2023-09-30T07:00:52;12.40;99.90
55004;DHT22;40900;52.710;6.438;2023-09-30T07:03:19;12.80;99.90
55004;DHT22;40900;52.710;6.438;2023-09-30T07:05:45;13.30;99.90
55004;DHT22;40900;52.710;6.438;2023-09-30T07:08:16;13.80;99.90
55004;DHT22;40900;52.710;6.438;2023-09-30T07:10:42;14.20;99.90
55004;DHT22;40900;52.710;6.438;2023-09-30T07:13:09;14.80;99.90
55004;DHT22;40900;52.710;6.438;2023-09-30T07:15:35;14.70;99.90
55004;DHT22;40900;52.710;6.438;2023-09-30T07:18:00;14.40;99.90
55004;DHT22;40900;52.710;6.438;2023-09-30T07:20:26;14.40;99.90
55004;DHT22;40900;52.710;6.438;2023-09-30T07:22:52;14.70;99.90
55004;DHT22;40900;52.710;6.438;2023-09-30T07:25:18;15.20;99.90
55004;DHT22;40900;52.710;6.438;2023-09-30T07:27:44;15.90;99.90
55004;DHT22;40900;52.710;6.438;2023-09-30T07:30:13;16.20;99.90
55004;DHT22;40900;52.710;6.438;2023-09-30T07:32:42;16.40;99.90
55004;DHT22;40900;52.710;6.438;2023-09-30T07:35:08;16.70;99.90
55004;DHT22;40900;52.710;6.438;2023-09-30T07:37:34;16.30;99.90
55004;DHT22;40900;52.710;6.438;2023-09-30T07:40:00;16.40;99.90
55004;DHT22;40900;52.710;6.438;2023-09-30T07:42:26;16.60;99.90
55004;DHT22;40900;52.710;6.438;2023-09-30T07:44:51;16.90;99.90
55004;DHT22;40900;52.710;6.438;2023-09-30T07:47:17;16.80;99.90
55004;DHT22;40900;52.710;6.438;2023-09-30T07:49:43;16.00;99.90
55004;DHT22;40900;52.710;6.438;2023-09-30T07:52:08;15.60;99.90
55004;DHT22;40900;52.710;6.438;2023-09-30T07:54:34;15.30;99.90
55004;DHT22;40900;52.710;6.438;2023-09-30T07:57:00;15.50;99.90
55004;DHT22;40900;52.710;6.438;2023-09-30T07:59:28;15.30;99.90
55004;DHT22;40900;52.710;6.438;2023-09-30T08:01:54;15.00;99.90
55004;DHT22;40900;52.710;6.438;2023-09-30T08:04:20;14.80;99.90
55004;DHT22;40900;52.710;6.438;2023-09-30T08:06:46;14.60;99.90
55004;DHT22;40900;52.710;6.438;2023-09-30T08:09:13;14.50;99.90
55004;DHT22;40900;52.710;6.438;2023-09-30T08:11:39;14.50;99.90
55004;DHT22;40900;52.710;6.438;2023-09-30T08:14:05;14.40;99.90
55004;DHT22;40900;52.710;6.438;2023-09-30T08:16:38;14.40;99.90
55004;DHT22;40900;52.710;6.438;2023-09-30T08:19:04;14.40;99.90
55004;DHT22;40900;52.710;6.438;2023-09-30T08:21:30;14.90;99.90
55004;DHT22;40900;52.710;6.438;2023-09-30T08:23:59;15.80;99.90
55004;DHT22;40900;52.710;6.438;2023-09-30T08:26:25;16.40;99.90
55004;DHT22;40900;52.710;6.438;2023-09-30T08:31:17;17.40;99.90
55004;DHT22;40900;52.710;6.438;2023-09-30T08:33:43;17.90;99.90
55004;DHT22;40900;52.710;6.438;2023-09-30T08:36:10;18.30;99.90
55004;DHT22;40900;52.710;6.438;2023-09-30T08:38:38;18.10;99.90
55004;DHT22;40900;52.710;6.438;2023-09-30T08:41:04;17.80;99.90
55004;DHT22;40900;52.710;6.438;2023-09-30T08:43:30;17.80;99.90
55004;DHT22;40900;52.710;6.438;2023-09-30T08:45:58;17.70;99.90
55004;DHT22;40900;52.710;6.438;2023-09-30T08:48:28;17.40;99.90
55004;DHT22;40900;52.710;6.438;2023-09-30T08:50:55;17.90;99.90
55004;DHT22;40900;52.710;6.438;2023-09-30T08:53:23;18.80;99.90
55004;DHT22;40900;52.710;6.438;2023-09-30T08:55:52;19.90;99.90
55004;DHT22;40900;52.710;6.438;2023-09-30T08:58:19;21.00;99.90
55004;DHT22;40900;52.710;6.438;2023-09-30T09:00:45;21.70;99.90
55004;DHT22;40900;52.710;6.438;2023-09-30T09:03:11;22.40;99.90
55004;DHT22;40900;52.710;6.438;2023-09-30T09:05:37;22.10;99.90
55004;DHT22;40900;52.710;6.438;2023-09-30T09:08:03;22.50;99.90
55004;DHT22;40900;52.710;6.438;2023-09-30T09:10:28;22.60;99.90
55004;DHT22;40900;52.710;6.438;2023-09-30T09:12:56;22.80;99.90
55004;DHT22;40900;52.710;6.438;2023-09-30T09:15:26;22.80;99.90
55004;DHT22;40900;52.710;6.438;2023-09-30T09:17:52;23.20;99.90
55004;DHT22;40900;52.710;6.438;2023-09-30T09:20:20;23.50;99.90
55004;DHT22;40900;52.710;6.438;2023-09-30T09:22:48;23.50;99.90
55004;DHT22;40900;52.710;6.438;2023-09-30T09:25:16;23.60;99.90
55004;DHT22;40900;52.710;6.438;2023-09-30T09:27:42;23.60;99.90
55004;DHT22;40900;52.710;6.438;2023-09-30T09:32:52;24.20;99.90
55004;DHT22;40900;52.710;6.438;2023-09-30T09:35:22;23.90;99.90
55004;DHT22;40900;52.710;6.438;2023-09-30T09:38:06;23.80;99.90
55004;DHT22;40900;52.710;6.438;2023-09-30T09:40:36;23.90;99.90
55004;DHT22;40900;52.710;6.438;2023-09-30T09:43:04;24.40;99.90
55004;DHT22;40900;52.710;6.438;2023-09-30T09:45:34;24.50;99.90
55004;DHT22;40900;52.710;6.438;2023-09-30T09:48:00;24.10;99.90
55004;DHT22;40900;52.710;6.438;2023-09-30T09:50:26;24.50;99.90
55004;DHT22;40900;52.710;6.438;2023-09-30T09:52:54;24.60;99.90
55004;DHT22;40900;52.710;6.438;2023-09-30T09:55:24;25.00;99.90
55004;DHT22;40900;52.710;6.438;2023-09-30T09:57:50;25.50;99.90
55004;DHT22;40900;52.710;6.438;2023-09-30T10:00:24;25.20;99.90
55004;DHT22;40900;52.710;6.438;2023-09-30T10:02:51;25.50;99.90
55004;DHT22;40900;52.710;6.438;2023-09-30T10:05:18;25.50;99.90
55004;DHT22;40900;52.710;6.438;2023-09-30T10:07:55;25.80;99.90
55004;DHT22;40900;52.710;6.438;2023-09-30T10:10:23;25.50;99.90
55004;DHT22;40900;52.710;6.438;2023-09-30T10:12:50;25.50;99.90
55004;DHT22;40900;52.710;6.438;2023-09-30T10:18:10;25.00;99.90
55004;DHT22;40900;52.710;6.438;2023-09-30T10:20:38;25.40;99.90
55004;DHT22;40900;52.710;6.438;2023-09-30T10:23:24;25.60;99.90
55004;DHT22;40900;52.710;6.438;2023-09-30T10:28:37;26.70;99.90
55004;DHT22;40900;52.710;6.438;2023-09-30T10:31:20;26.40;99.90
55004;DHT22;40900;52.710;6.438;2023-09-30T10:36:48;26.10;99.90
55004;DHT22;40900;52.710;6.438;2023-09-30T10:39:54;25.80;99.90
55004;DHT22;40900;52.710;6.438;2023-09-30T10:42:44;25.80;99.90
55004;DHT22;40900;52.710;6.438;2023-09-30T10:45:42;26.40;99.90
55004;DHT22;40900;52.710;6.438;2023-09-30T10:53:31;26.40;99.90
55004;DHT22;40900;52.710;6.438;2023-09-30T10:55:58;25.40;99.90
55004;DHT22;40900;52.710;6.438;2023-09-30T10:58:43;25.00;99.90
55004;DHT22;40900;52.710;6.438;2023-09-30T11:01:13;24.70;99.90
55004;DHT22;40900;52.710;6.438;2023-09-30T11:03:41;24.10;99.90
55004;DHT22;40900;52.710;6.438;2023-09-30T11:06:07;23.20;99.90
55004;DHT22;40900;52.710;6.438;2023-09-30T11:08:34;23.80;99.90
55004;DHT22;40900;52.710;6.438;2023-09-30T11:11:00;24.40;99.90
55004;DHT22;40900;52.710;6.438;2023-09-30T11:13:33;25.20;99.90
55004;DHT22;40900;52.710;6.438;2023-09-30T11:16:03;24.80;99.90
55004;DHT22;40900;52.710;6.438;2023-09-30T11:18:32;23.50;99.90
55004;DHT22;40900;52.710;6.438;2023-09-30T11:21:09;22.40;99.90
55004;DHT22;40900;52.710;6.438;2023-09-30T11:23:37;22.20;99.90
55004;DHT22;40900;52.710;6.438;2023-09-30T11:26:03;21.80;99.90
55004;DHT22;40900;52.710;6.438;2023-09-30T11:28:41;21.70;99.90
55004;DHT22;40900;52.710;6.438;2023-09-30T11:31:12;21.40;99.90
55004;DHT22;40900;52.710;6.438;2023-09-30T11:33:53;21.30;99.90
55004;DHT22;40900;52.710;6.438;2023-09-30T11:36:22;21.00;99.90
55004;DHT22;40900;52.710;6.438;2023-09-30T11:38:50;20.60;99.90
55004;DHT22;40900;52.710;6.438;2023-09-30T11:41:17;20.40;99.90
55004;DHT22;40900;52.710;6.438;2023-09-30T11:44:19;20.20;99.90
55004;DHT22;40900;52.710;6.438;2023-09-30T11:46:49;19.90;99.90
55004;DHT22;40900;52.710;6.438;2023-09-30T11:49:28;19.70;99.90
55004;DHT22;40900;52.710;6.438;2023-09-30T11:51:55;19.80;99.90
55004;DHT22;40900;52.710;6.438;2023-09-30T11:54:21;19.70;99.90
55004;DHT22;40900;52.710;6.438;2023-09-30T11:56:49;19.70;99.90
55004;DHT22;40900;52.710;6.438;2023-09-30T11:59:17;20.00;99.90
55004;DHT22;40900;52.710;6.438;2023-09-30T12:01:45;20.40;99.90
55004;DHT22;40900;52.710;6.438;2023-09-30T12:04:15;20.50;99.90
55004;DHT22;40900;52.710;6.438;2023-09-30T12:06:48;21.00;99.90
55004;DHT22;40900;52.710;6.438;2023-09-30T12:09:18;21.40;99.90
55004;DHT22;40900;52.710;6.438;2023-09-30T12:11:48;21.30;99.90
55004;DHT22;40900;52.710;6.438;2023-09-30T12:14:14;21.40;99.90
55004;DHT22;40900;52.710;6.438;2023-09-30T12:16:41;21.60;99.90
55004;DHT22;40900;52.710;6.438;2023-09-30T12:19:07;21.50;99.90
55004;DHT22;40900;52.710;6.438;2023-09-30T12:21:34;21.60;99.90
55004;DHT22;40900;52.710;6.438;2023-09-30T12:24:03;21.20;99.90
55004;DHT22;40900;52.710;6.438;2023-09-30T12:26:32;21.00;99.90
55004;DHT22;40900;52.710;6.438;2023-09-30T12:28:58;21.30;99.90
55004;DHT22;40900;52.710;6.438;2023-09-30T12:31:23;21.10;99.90
55004;DHT22;40900;52.710;6.438;2023-09-30T12:33:49;21.20;99.90
55004;DHT22;40900;52.710;6.438;2023-09-30T12:36:18;21.10;99.90
55004;DHT22;40900;52.710;6.438;2023-09-30T12:38:44;21.30;99.90
55004;DHT22;40900;52.710;6.438;2023-09-30T12:41:10;21.40;99.90
55004;DHT22;40900;52.710;6.438;2023-09-30T12:43:37;21.50;99.90
55004;DHT22;40900;52.710;6.438;2023-09-30T12:46:03;21.70;99.90
55004;DHT22;40900;52.710;6.438;2023-09-30T12:48:30;21.80;99.90
55004;DHT22;40900;52.710;6.438;2023-09-30T12:50:56;22.10;99.90
55004;DHT22;40900;52.710;6.438;2023-09-30T12:53:21;22.10;99.90
55004;DHT22;40900;52.710;6.438;2023-09-30T12:55:47;21.90;99.90
55004;DHT22;40900;52.710;6.438;2023-09-30T12:58:13;22.10;99.90
55004;DHT22;40900;52.710;6.438;2023-09-30T13:00:39;22.10;99.90
55004;DHT22;40900;52.710;6.438;2023-09-30T13:03:05;22.00;99.90
55004;DHT22;40900;52.710;6.438;2023-09-30T13:05:33;22.10;99.90
55004;DHT22;40900;52.710;6.438;2023-09-30T13:07:59;21.80;99.90
55004;DHT22;40900;52.710;6.438;2023-09-30T13:10:25;21.60;99.90
55004;DHT22;40900;52.710;6.438;2023-09-30T13:12:51;21.50;99.90
55004;DHT22;40900;52.710;6.438;2023-09-30T13:15:19;21.00;99.90
55004;DHT22;40900;52.710;6.438;2023-09-30T13:17:45;21.00;99.90
55004;DHT22;40900;52.710;6.438;2023-09-30T13:20:11;20.80;99.90
55004;DHT22;40900;52.710;6.438;2023-09-30T13:22:40;21.00;99.90
55004;DHT22;40900;52.710;6.438;2023-09-30T13:25:06;21.10;99.90
55004;DHT22;40900;52.710;6.438;2023-09-30T13:27:34;21.20;99.90
55004;DHT22;40900;52.710;6.438;2023-09-30T13:30:00;21.30;99.90
55004;DHT22;40900;52.710;6.438;2023-09-30T13:32:27;21.10;99.90
55004;DHT22;40900;52.710;6.438;2023-09-30T13:34:53;21.30;99.90
55004;DHT22;40900;52.710;6.438;2023-09-30T13:37:20;21.30;99.90
55004;DHT22;40900;52.710;6.438;2023-09-30T13:39:45;21.30;99.90
55004;DHT22;40900;52.710;6.438;2023-09-30T13:42:11;21.50;99.90
55004;DHT22;40900;52.710;6.438;2023-09-30T13:44:37;21.20;99.90
55004;DHT22;40900;52.710;6.438;2023-09-30T13:47:06;21.10;99.90
55004;DHT22;40900;52.710;6.438;2023-09-30T13:49:33;21.20;99.90
55004;DHT22;40900;52.710;6.438;2023-09-30T13:51:59;20.80;99.90
55004;DHT22;40900;52.710;6.438;2023-09-30T13:54:25;21.20;99.90
55004;DHT22;40900;52.710;6.438;2023-09-30T13:56:50;21.20;99.90
55004;DHT22;40900;52.710;6.438;2023-09-30T13:59:16;21.20;99.90
55004;DHT22;40900;52.710;6.438;2023-09-30T14:01:42;21.20;99.90
55004;DHT22;40900;52.710;6.438;2023-09-30T14:04:08;20.90;99.90
55004;DHT22;40900;52.710;6.438;2023-09-30T14:06:34;20.80;99.90
55004;DHT22;40900;52.710;6.438;2023-09-30T14:09:00;20.80;99.90
55004;DHT22;40900;52.710;6.438;2023-09-30T14:11:26;20.70;99.90
55004;DHT22;40900;52.710;6.438;2023-09-30T14:13:52;20.70;99.90
55004;DHT22;40900;52.710;6.438;2023-09-30T14:16:18;20.70;99.90
55004;DHT22;40900;52.710;6.438;2023-09-30T14:18:44;20.80;99.90
55004;DHT22;40900;52.710;6.438;2023-09-30T14:21:10;20.80;99.90
55004;DHT22;40900;52.710;6.438;2023-09-30T14:23:36;21.00;99.90
55004;DHT22;40900;52.710;6.438;2023-09-30T14:26:02;20.80;99.90
55004;DHT22;40900;52.710;6.438;2023-09-30T14:28:36;20.70;99.90
55004;DHT22;40900;52.710;6.438;2023-09-30T14:31:05;20.90;99.90
55004;DHT22;40900;52.710;6.438;2023-09-30T14:33:31;20.90;99.90
55004;DHT22;40900;52.710;6.438;2023-09-30T14:35:57;20.80;99.90
55004;DHT22;40900;52.710;6.438;2023-09-30T14:38:23;20.70;99.90
55004;DHT22;40900;52.710;6.438;2023-09-30T14:40:49;20.60;99.90
55004;DHT22;40900;52.710;6.438;2023-09-30T14:43:15;20.50;99.90
55004;DHT22;40900;52.710;6.438;2023-09-30T14:45:41;20.60;99.90
55004;DHT22;40900;52.710;6.438;2023-09-30T14:48:08;20.50;99.90
55004;DHT22;40900;52.710;6.438;2023-09-30T14:50:35;20.40;99.90
55004;DHT22;40900;52.710;6.438;2023-09-30T14:53:02;20.40;99.90
55004;DHT22;40900;52.710;6.438;2023-09-30T14:55:30;20.30;99.90
55004;DHT22;40900;52.710;6.438;2023-09-30T14:57:56;20.30;99.90
55004;DHT22;40900;52.710;6.438;2023-09-30T15:00:22;20.20;99.90
55004;DHT22;40900;52.710;6.438;2023-09-30T15:02:50;20.20;99.90
55004;DHT22;40900;52.710;6.438;2023-09-30T15:05:16;20.20;99.90
55004;DHT22;40900;52.710;6.438;2023-09-30T15:07:42;20.20;99.90
55004;DHT22;40900;52.710;6.438;2023-09-30T15:10:09;20.20;99.90
55004;DHT22;40900;52.710;6.438;2023-09-30T15:12:35;20.20;99.90
55004;DHT22;40900;52.710;6.438;2023-09-30T15:15:01;20.20;99.90
55004;DHT22;40900;52.710;6.438;2023-09-30T15:17:27;20.20;99.90
55004;DHT22;40900;52.710;6.438;2023-09-30T15:19:55;20.20;99.90
55004;DHT22;40900;52.710;6.438;2023-09-30T15:22:21;20.20;99.90
55004;DHT22;40900;52.710;6.438;2023-09-30T15:24:46;20.20;99.90
55004;DHT22;40900;52.710;6.438;2023-09-30T15:27:12;20.20;99.90
55004;DHT22;40900;52.710;6.438;2023-09-30T15:29:38;20.10;99.90
55004;DHT22;40900;52.710;6.438;2023-09-30T15:32:04;20.20;99.90
55004;DHT22;40900;52.710;6.438;2023-09-30T15:34:30;20.20;99.90
55004;DHT22;40900;52.710;6.438;2023-09-30T15:36:56;20.30;99.90
55004;DHT22;40900;52.710;6.438;2023-09-30T15:39:22;20.30;99.90
55004;DHT22;40900;52.710;6.438;2023-09-30T15:41:48;20.30;99.90
55004;DHT22;40900;52.710;6.438;2023-09-30T15:44:14;20.30;99.90
55004;DHT22;40900;52.710;6.438;2023-09-30T15:46:40;20.30;99.90
55004;DHT22;40900;52.710;6.438;2023-09-30T15:49:05;20.20;99.90
55004;DHT22;40900;52.710;6.438;2023-09-30T15:51:31;20.00;99.90